Wind from 171 at 3 knots gusting 10

Air temperature 20.0° C
Dewpoint 12.7° C

Last reported at 2014-Apr-23 17:31 UTC.
Time now 2014-Apr-23 18:56 UTC

Location: N 41°18' E 001°60'.
View on Google Maps.

See reports from other nearby stations

Tides Stations Pressure Air Temp Water Temp Dewpoint Dewpoint depression Visibility Wind Speed Wind Dir Waves Ship positions

  
sailing weather and tide predictions

CW8593 Gava ES weather

date/time (UTC)wind fromknots sea level pressurealtimeterstation pressurevisibilityair tempwater tempwave heightnotes
2014-Apr-23 17:31 171 3 gusting 10 20.0
2014-Apr-23 17:11 213 1 gusting 10 20.6
2014-Apr-23 17:01 226 6 gusting 13 20.6
2014-Apr-23 16:41 234 6 gusting 14 21.1
2014-Apr-23 16:11 210 2 gusting 10 20.6
2014-Apr-23 16:01 204 6 gusting 17 20.0
2014-Apr-23 15:41 216 5 gusting 13 20.0
2014-Apr-23 15:11 202 5 gusting 11 20.6
2014-Apr-23 15:01 219 6 gusting 14 20.6
2014-Apr-23 14:31 218 6 gusting 15 20.0
2014-Apr-23 13:41 212 2 gusting 12 20.6
2014-Apr-23 13:31 181 6 gusting 14 20.0
2014-Apr-23 13:11 172 8 gusting 15 19.4
2014-Apr-23 13:01 181 9 gusting 19 18.9
2014-Apr-23 12:41 170 8 gusting 17 18.9
2014-Apr-23 11:41 163 6 gusting 17 18.9
2014-Apr-23 11:01 183 11 gusting 18 18.3
2014-Apr-23 10:41 183 8 gusting 17 18.9
2014-Apr-23 10:11 153 5 gusting 14 18.9
2014-Apr-23 10:01 179 7 gusting 15 18.9
2014-Apr-23 09:41 189 4 gusting 11 18.9
2014-Apr-23 09:11 192 6 gusting 13 17.8
2014-Apr-23 09:01 186 1 gusting 10 17.8
2014-Apr-23 08:41 179 4 gusting 8 17.8
2014-Apr-23 08:01 141 2 gusting 6 17.2
2014-Apr-23 07:31 134 2 gusting 5 17.2
2014-Apr-23 07:01 321 0 gusting 4 16.1
2014-Apr-23 06:41 315 0 gusting 4 15.6
2014-Apr-23 06:31 313 1 gusting 2 15.0
2014-Apr-23 06:11 313 13.9
2014-Apr-23 06:01 313 13.3
2014-Apr-23 05:41 313 13.3
2014-Apr-23 05:01 311 0 gusting 5 12.8
2014-Apr-23 04:31 034 12.8
2014-Apr-23 04:01 034 12.2
2014-Apr-23 03:31 034 12.8
2014-Apr-23 03:01 034 12.8
2014-Apr-23 02:31 034 12.2
2014-Apr-23 02:11 034 12.8
2014-Apr-23 01:11 034 12.8
2014-Apr-23 00:41 034 13.3
2014-Apr-23 00:11 034 0 gusting 1 12.8
2014-Apr-23 00:01 034 12.8
2014-Apr-22 23:41 034 0 gusting 1 13.3
2014-Apr-22 23:31 034 13.3
2014-Apr-22 22:31 034 14.4
2014-Apr-22 22:11 034 13.9
2014-Apr-22 22:01 034 13.9
2014-Apr-22 21:31 034 14.4
2014-Apr-22 21:11 034 2 gusting 2 14.4
2014-Apr-22 20:31 034 1 gusting 2 15.0
2014-Apr-22 20:11 034 15.6
2014-Apr-22 20:01 034 15.6
2014-Apr-22 19:31 034 15.6
2014-Apr-22 18:01 065 5 gusting 10 16.1
2014-Apr-22 17:41 106 1 gusting 8 16.1
2014-Apr-22 17:31 053 4 gusting 11 16.1
2014-Apr-22 17:01 049 5 gusting 12 16.7
2014-Apr-22 16:11 110 4 gusting 7 16.7
2014-Apr-22 15:41 171 2 gusting 6 17.2
2014-Apr-22 15:31 169 1 gusting 10 17.2
2014-Apr-22 14:41 159 4 gusting 8 17.8
2014-Apr-22 14:31 103 2 gusting 10 17.8
2014-Apr-22 14:01 102 4 gusting 10 17.8
2014-Apr-22 13:11 128 4 gusting 7 17.2
2014-Apr-22 13:01 127 0 gusting 7 17.8
2014-Apr-22 12:41 124 4 gusting 6 17.2
2014-Apr-22 12:31 152 3 gusting 6 16.7
2014-Apr-22 11:11 202 0 gusting 6 18.3
2014-Apr-22 10:01 032 1 gusting 8 17.8
2014-Apr-22 09:41 055 3 gusting 8 17.8
2014-Apr-22 09:31 346 4 gusting 10 17.8
2014-Apr-22 09:11 042 3 gusting 8 17.2
2014-Apr-22 08:41 012 6 gusting 11 16.1
2014-Apr-22 08:01 333 2 gusting 10 15.6
2014-Apr-22 07:01 306 2 gusting 7 14.4
2014-Apr-22 06:41 303 1 gusting 6 13.9
2014-Apr-22 06:11 300 5 gusting 7 13.9
2014-Apr-22 05:41 290 4 gusting 6 13.9
2014-Apr-22 05:11 292 5 gusting 7 13.9
2014-Apr-22 05:01 296 3 gusting 6 13.9
2014-Apr-22 04:41 300 4 gusting 8 14.4
2014-Apr-22 03:41 350 2 gusting 5 14.4
2014-Apr-22 03:11 018 0 gusting 2 14.4
2014-Apr-22 03:01 019 1 gusting 2 14.4
2014-Apr-22 01:31 020 0 gusting 2 14.4
2014-Apr-22 01:11 019 1 gusting 2 14.4
2014-Apr-22 01:01 019 0 gusting 6 14.4
2014-Apr-22 00:41 013 0 gusting 2 15.0
2014-Apr-22 00:01 049 1 gusting 4 15.0
2014-Apr-21 23:01 013 1 gusting 6 15.0
2014-Apr-21 22:41 043 0 gusting 6 15.0
2014-Apr-21 22:01 048 2 gusting 6 15.0
2014-Apr-21 21:31 028 1 gusting 4 15.0
2014-Apr-21 21:01 055 0 gusting 6 15.0
2014-Apr-21 20:41 045 0 gusting 2 15.6
2014-Apr-21 20:31 045 0 gusting 5 15.6
2014-Apr-21 20:11 060 0 gusting 4 15.6
2014-Apr-21 19:41 075 1 gusting 6 15.6
2014-Apr-21 19:11 061 1 gusting 4 15.0
2014-Apr-21 19:01 072 1 gusting 6 15.0
2014-Apr-21 18:31 076 4 gusting 10 15.0
2014-Apr-21 18:11 064 1 gusting 10 15.0
2014-Apr-21 18:01 041 4 gusting 10 15.6